sensor_id;sensor_type;location;lat;lon;timestamp;temperature;humidity
24744;DHT22;12844;52.110;5.548;2022-08-19T00:01:12;27.10;53.30
24744;DHT22;12844;52.110;5.548;2022-08-19T00:03:38;27.10;53.30
24744;DHT22;12844;52.110;5.548;2022-08-19T00:06:04;27.10;53.30
24744;DHT22;12844;52.110;5.548;2022-08-19T00:08:30;27.10;53.30
24744;DHT22;12844;52.110;5.548;2022-08-19T00:10:56;27.00;53.20
24744;DHT22;12844;52.110;5.548;2022-08-19T00:13:22;27.10;53.30
24744;DHT22;12844;52.110;5.548;2022-08-19T00:15:47;27.10;53.30
24744;DHT22;12844;52.110;5.548;2022-08-19T00:18:13;27.00;53.20
24744;DHT22;12844;52.110;5.548;2022-08-19T00:20:38;27.00;53.20
24744;DHT22;12844;52.110;5.548;2022-08-19T00:23:06;27.10;53.30
24744;DHT22;12844;52.110;5.548;2022-08-19T00:25:32;27.00;53.20
24744;DHT22;12844;52.110;5.548;2022-08-19T00:27:58;27.00;53.20
24744;DHT22;12844;52.110;5.548;2022-08-19T00:30:25;27.00;53.20
24744;DHT22;12844;52.110;5.548;2022-08-19T00:32:53;27.00;53.20
24744;DHT22;12844;52.110;5.548;2022-08-19T00:35:20;27.00;53.20
24744;DHT22;12844;52.110;5.548;2022-08-19T00:37:48;27.00;53.20
24744;DHT22;12844;52.110;5.548;2022-08-19T00:40:14;27.00;53.20
24744;DHT22;12844;52.110;5.548;2022-08-19T00:42:41;27.00;53.20
24744;DHT22;12844;52.110;5.548;2022-08-19T00:45:13;27.00;53.20
24744;DHT22;12844;52.110;5.548;2022-08-19T00:47:40;27.00;53.20
24744;DHT22;12844;52.110;5.548;2022-08-19T00:50:08;27.00;53.20
24744;DHT22;12844;52.110;5.548;2022-08-19T00:52:37;27.00;53.20
24744;DHT22;12844;52.110;5.548;2022-08-19T00:55:05;27.00;53.20
24744;DHT22;12844;52.110;5.548;2022-08-19T00:57:36;27.00;53.20
24744;DHT22;12844;52.110;5.548;2022-08-19T01:00:08;27.00;53.20
24744;DHT22;12844;52.110;5.548;2022-08-19T01:02:36;27.00;53.20
24744;DHT22;12844;52.110;5.548;2022-08-19T01:05:06;27.00;53.20
24744;DHT22;12844;52.110;5.548;2022-08-19T01:07:34;27.00;53.20
24744;DHT22;12844;52.110;5.548;2022-08-19T01:10:00;27.00;53.20
24744;DHT22;12844;52.110;5.548;2022-08-19T01:12:26;27.00;53.20
24744;DHT22;12844;52.110;5.548;2022-08-19T01:14:52;27.00;53.20
24744;DHT22;12844;52.110;5.548;2022-08-19T01:17:19;27.00;53.20
24744;DHT22;12844;52.110;5.548;2022-08-19T01:19:45;27.00;53.20
24744;DHT22;12844;52.110;5.548;2022-08-19T01:24:48;27.00;53.20
24744;DHT22;12844;52.110;5.548;2022-08-19T01:27:14;26.90;53.20
24744;DHT22;12844;52.110;5.548;2022-08-19T01:29:41;26.90;53.20
24744;DHT22;12844;52.110;5.548;2022-08-19T01:32:10;26.90;53.80
24744;DHT22;12844;52.110;5.548;2022-08-19T01:34:37;26.90;53.20
24744;DHT22;12844;52.110;5.548;2022-08-19T01:37:07;26.90;53.20
24744;DHT22;12844;52.110;5.548;2022-08-19T01:39:33;26.90;53.20
24744;DHT22;12844;52.110;5.548;2022-08-19T01:41:59;26.90;53.20
24744;DHT22;12844;52.110;5.548;2022-08-19T01:44:28;26.90;53.20
24744;DHT22;12844;52.110;5.548;2022-08-19T01:46:54;26.90;53.10
24744;DHT22;12844;52.110;5.548;2022-08-19T01:49:22;26.90;53.10
24744;DHT22;12844;52.110;5.548;2022-08-19T01:51:48;26.90;53.10
24744;DHT22;12844;52.110;5.548;2022-08-19T01:54:15;26.90;53.20
24744;DHT22;12844;52.110;5.548;2022-08-19T01:56:41;26.90;53.10
24744;DHT22;12844;52.110;5.548;2022-08-19T02:01:43;26.90;53.10
24744;DHT22;12844;52.110;5.548;2022-08-19T02:04:08;26.90;53.20
24744;DHT22;12844;52.110;5.548;2022-08-19T02:06:34;26.90;53.10
24744;DHT22;12844;52.110;5.548;2022-08-19T02:09:00;26.80;53.10
24744;DHT22;12844;52.110;5.548;2022-08-19T02:11:32;26.80;53.10
24744;DHT22;12844;52.110;5.548;2022-08-19T02:14:00;26.90;53.10
24744;DHT22;12844;52.110;5.548;2022-08-19T02:16:27;26.80;53.10
24744;DHT22;12844;52.110;5.548;2022-08-19T02:18:52;26.80;53.10
24744;DHT22;12844;52.110;5.548;2022-08-19T02:21:20;26.80;53.10
24744;DHT22;12844;52.110;5.548;2022-08-19T02:23:46;26.80;53.00
24744;DHT22;12844;52.110;5.548;2022-08-19T02:26:12;26.80;53.00
24744;DHT22;12844;52.110;5.548;2022-08-19T02:28:38;26.80;53.00
24744;DHT22;12844;52.110;5.548;2022-08-19T02:31:09;26.80;53.00
24744;DHT22;12844;52.110;5.548;2022-08-19T02:33:34;26.80;52.90
24744;DHT22;12844;52.110;5.548;2022-08-19T02:36:04;26.80;52.90
24744;DHT22;12844;52.110;5.548;2022-08-19T02:38:29;26.80;52.90
24744;DHT22;12844;52.110;5.548;2022-08-19T02:41:05;26.80;52.90
24744;DHT22;12844;52.110;5.548;2022-08-19T02:43:33;26.80;52.90
24744;DHT22;12844;52.110;5.548;2022-08-19T02:46:10;26.80;52.90
24744;DHT22;12844;52.110;5.548;2022-08-19T02:48:36;26.70;52.80
24744;DHT22;12844;52.110;5.548;2022-08-19T02:51:02;26.70;52.80
24744;DHT22;12844;52.110;5.548;2022-08-19T02:53:27;26.70;52.80
24744;DHT22;12844;52.110;5.548;2022-08-19T02:55:54;26.70;52.80
24744;DHT22;12844;52.110;5.548;2022-08-19T02:58:20;26.70;52.70
24744;DHT22;12844;52.110;5.548;2022-08-19T03:00:52;26.70;52.80
24744;DHT22;12844;52.110;5.548;2022-08-19T03:03:19;26.70;52.70
24744;DHT22;12844;52.110;5.548;2022-08-19T03:05:45;26.70;52.70
24744;DHT22;12844;52.110;5.548;2022-08-19T03:08:11;26.70;52.70
24744;DHT22;12844;52.110;5.548;2022-08-19T03:10:47;26.70;52.70
24744;DHT22;12844;52.110;5.548;2022-08-19T03:13:16;26.70;52.70
24744;DHT22;12844;52.110;5.548;2022-08-19T03:15:44;26.70;52.70
24744;DHT22;12844;52.110;5.548;2022-08-19T03:18:10;26.70;52.70
24744;DHT22;12844;52.110;5.548;2022-08-19T03:20:47;26.70;52.70
24744;DHT22;12844;52.110;5.548;2022-08-19T03:23:14;26.70;52.70
24744;DHT22;12844;52.110;5.548;2022-08-19T03:25:42;26.70;52.70
24744;DHT22;12844;52.110;5.548;2022-08-19T03:28:11;26.70;52.70
24744;DHT22;12844;52.110;5.548;2022-08-19T03:30:38;26.70;52.70
24744;DHT22;12844;52.110;5.548;2022-08-19T03:33:06;26.70;52.70
24744;DHT22;12844;52.110;5.548;2022-08-19T03:35:32;26.70;52.60
24744;DHT22;12844;52.110;5.548;2022-08-19T03:37:59;26.70;52.60
24744;DHT22;12844;52.110;5.548;2022-08-19T03:40:25;26.70;52.60
24744;DHT22;12844;52.110;5.548;2022-08-19T03:42:50;26.70;52.60
24744;DHT22;12844;52.110;5.548;2022-08-19T03:45:16;26.70;52.60
24744;DHT22;12844;52.110;5.548;2022-08-19T03:47:42;26.70;52.50
24744;DHT22;12844;52.110;5.548;2022-08-19T03:50:08;26.70;52.50
24744;DHT22;12844;52.110;5.548;2022-08-19T03:52:34;26.70;52.50
24744;DHT22;12844;52.110;5.548;2022-08-19T03:55:01;26.70;52.40
24744;DHT22;12844;52.110;5.548;2022-08-19T03:57:27;26.70;52.50
24744;DHT22;12844;52.110;5.548;2022-08-19T03:59:52;26.70;52.40
24744;DHT22;12844;52.110;5.548;2022-08-19T04:02:18;26.70;52.40
24744;DHT22;12844;52.110;5.548;2022-08-19T04:04:44;26.60;52.40
24744;DHT22;12844;52.110;5.548;2022-08-19T04:07:11;26.60;52.30
24744;DHT22;12844;52.110;5.548;2022-08-19T04:09:40;26.60;52.40
24744;DHT22;12844;52.110;5.548;2022-08-19T04:12:06;26.60;52.30
24744;DHT22;12844;52.110;5.548;2022-08-19T04:14:33;26.60;52.30
24744;DHT22;12844;52.110;5.548;2022-08-19T04:17:00;26.60;52.30
24744;DHT22;12844;52.110;5.548;2022-08-19T04:19:30;26.60;52.30
24744;DHT22;12844;52.110;5.548;2022-08-19T04:21:55;26.60;52.30
24744;DHT22;12844;52.110;5.548;2022-08-19T04:24:22;26.60;52.30
24744;DHT22;12844;52.110;5.548;2022-08-19T04:26:48;26.60;52.30
24744;DHT22;12844;52.110;5.548;2022-08-19T04:29:17;26.60;52.20
24744;DHT22;12844;52.110;5.548;2022-08-19T04:31:43;26.60;52.30
24744;DHT22;12844;52.110;5.548;2022-08-19T04:34:12;26.60;52.20
24744;DHT22;12844;52.110;5.548;2022-08-19T04:36:40;26.60;52.20
24744;DHT22;12844;52.110;5.548;2022-08-19T04:39:10;26.60;52.20
24744;DHT22;12844;52.110;5.548;2022-08-19T04:41:36;26.60;52.20
24744;DHT22;12844;52.110;5.548;2022-08-19T04:44:21;26.60;52.20
24744;DHT22;12844;52.110;5.548;2022-08-19T04:46:47;26.60;52.20
24744;DHT22;12844;52.110;5.548;2022-08-19T04:49:15;26.50;52.20
24744;DHT22;12844;52.110;5.548;2022-08-19T04:51:44;26.50;52.20
24744;DHT22;12844;52.110;5.548;2022-08-19T04:54:10;26.50;52.10
24744;DHT22;12844;52.110;5.548;2022-08-19T04:56:36;26.50;52.10
24744;DHT22;12844;52.110;5.548;2022-08-19T04:59:01;26.50;52.10
24744;DHT22;12844;52.110;5.548;2022-08-19T05:01:30;26.50;52.10
24744;DHT22;12844;52.110;5.548;2022-08-19T05:03:58;26.50;52.10
24744;DHT22;12844;52.110;5.548;2022-08-19T05:06:24;26.50;52.10
24744;DHT22;12844;52.110;5.548;2022-08-19T05:08:51;26.50;52.20
24744;DHT22;12844;52.110;5.548;2022-08-19T05:11:20;26.50;52.10
24744;DHT22;12844;52.110;5.548;2022-08-19T05:13:46;26.50;52.10
24744;DHT22;12844;52.110;5.548;2022-08-19T05:16:13;26.50;52.00
24744;DHT22;12844;52.110;5.548;2022-08-19T05:18:39;26.50;52.00
24744;DHT22;12844;52.110;5.548;2022-08-19T05:21:24;26.50;52.10
24744;DHT22;12844;52.110;5.548;2022-08-19T05:24:09;26.50;52.10
24744;DHT22;12844;52.110;5.548;2022-08-19T05:26:36;26.50;52.20
24744;DHT22;12844;52.110;5.548;2022-08-19T05:29:03;26.50;52.10
24744;DHT22;12844;52.110;5.548;2022-08-19T05:31:29;26.50;52.00
24744;DHT22;12844;52.110;5.548;2022-08-19T05:33:55;26.50;52.10
24744;DHT22;12844;52.110;5.548;2022-08-19T05:36:24;26.50;52.00
24744;DHT22;12844;52.110;5.548;2022-08-19T05:38:49;26.50;52.00
24744;DHT22;12844;52.110;5.548;2022-08-19T05:41:15;26.50;52.00
24744;DHT22;12844;52.110;5.548;2022-08-19T05:43:42;26.50;52.00
24744;DHT22;12844;52.110;5.548;2022-08-19T05:46:08;26.50;52.00
24744;DHT22;12844;52.110;5.548;2022-08-19T05:48:40;26.50;52.00
24744;DHT22;12844;52.110;5.548;2022-08-19T05:51:07;26.50;52.00
24744;DHT22;12844;52.110;5.548;2022-08-19T05:53:33;26.40;52.00
24744;DHT22;12844;52.110;5.548;2022-08-19T05:56:11;26.40;51.90
24744;DHT22;12844;52.110;5.548;2022-08-19T05:58:38;26.50;51.90
24744;DHT22;12844;52.110;5.548;2022-08-19T06:01:09;26.40;51.90
24744;DHT22;12844;52.110;5.548;2022-08-19T06:03:36;26.40;51.90
24744;DHT22;12844;52.110;5.548;2022-08-19T06:06:03;26.40;51.90
24744;DHT22;12844;52.110;5.548;2022-08-19T06:08:29;26.40;51.90
24744;DHT22;12844;52.110;5.548;2022-08-19T06:10:55;26.40;51.90
24744;DHT22;12844;52.110;5.548;2022-08-19T06:13:22;26.40;51.90
24744;DHT22;12844;52.110;5.548;2022-08-19T06:15:49;26.40;51.90
24744;DHT22;12844;52.110;5.548;2022-08-19T06:18:15;26.40;51.90
24744;DHT22;12844;52.110;5.548;2022-08-19T06:20:41;26.40;51.90
24744;DHT22;12844;52.110;5.548;2022-08-19T06:23:07;26.40;51.90
24744;DHT22;12844;52.110;5.548;2022-08-19T06:25:34;26.40;51.90
24744;DHT22;12844;52.110;5.548;2022-08-19T06:28:00;26.40;51.90
24744;DHT22;12844;52.110;5.548;2022-08-19T06:30:25;26.50;52.00
24744;DHT22;12844;52.110;5.548;2022-08-19T06:32:51;26.40;51.90
24744;DHT22;12844;52.110;5.548;2022-08-19T06:35:17;26.40;51.90
24744;DHT22;12844;52.110;5.548;2022-08-19T06:37:43;26.40;51.80
24744;DHT22;12844;52.110;5.548;2022-08-19T06:40:10;26.40;51.90
24744;DHT22;12844;52.110;5.548;2022-08-19T06:42:36;26.40;51.80
24744;DHT22;12844;52.110;5.548;2022-08-19T06:45:04;26.40;51.80
24744;DHT22;12844;52.110;5.548;2022-08-19T06:47:30;26.40;51.80
24744;DHT22;12844;52.110;5.548;2022-08-19T06:49:58;26.50;51.80
24744;DHT22;12844;52.110;5.548;2022-08-19T06:52:27;26.40;51.70
24744;DHT22;12844;52.110;5.548;2022-08-19T06:54:52;26.50;51.80
24744;DHT22;12844;52.110;5.548;2022-08-19T06:57:19;26.50;51.80
24744;DHT22;12844;52.110;5.548;2022-08-19T06:59:45;26.50;51.80
24744;DHT22;12844;52.110;5.548;2022-08-19T07:02:10;26.50;51.80
24744;DHT22;12844;52.110;5.548;2022-08-19T07:04:36;26.50;51.70
24744;DHT22;12844;52.110;5.548;2022-08-19T07:07:06;26.50;51.70
24744;DHT22;12844;52.110;5.548;2022-08-19T07:09:34;26.50;51.80
24744;DHT22;12844;52.110;5.548;2022-08-19T07:12:03;26.50;51.80
24744;DHT22;12844;52.110;5.548;2022-08-19T07:14:29;26.50;51.80
24744;DHT22;12844;52.110;5.548;2022-08-19T07:16:56;26.40;51.90
24744;DHT22;12844;52.110;5.548;2022-08-19T07:19:24;26.50;51.90
24744;DHT22;12844;52.110;5.548;2022-08-19T07:21:51;26.50;51.90
24744;DHT22;12844;52.110;5.548;2022-08-19T07:24:19;26.50;51.90
24744;DHT22;12844;52.110;5.548;2022-08-19T07:26:45;26.50;51.90
24744;DHT22;12844;52.110;5.548;2022-08-19T07:29:12;26.50;51.90
24744;DHT22;12844;52.110;5.548;2022-08-19T07:31:38;26.50;51.90
24744;DHT22;12844;52.110;5.548;2022-08-19T07:34:06;26.50;51.90
24744;DHT22;12844;52.110;5.548;2022-08-19T07:36:34;26.40;52.00
24744;DHT22;12844;52.110;5.548;2022-08-19T07:39:15;26.50;52.10
24744;DHT22;12844;52.110;5.548;2022-08-19T07:41:40;26.40;52.10
24744;DHT22;12844;52.110;5.548;2022-08-19T07:44:07;26.50;52.20
24744;DHT22;12844;52.110;5.548;2022-08-19T07:46:35;26.40;52.20
24744;DHT22;12844;52.110;5.548;2022-08-19T07:49:03;26.50;52.30
24744;DHT22;12844;52.110;5.548;2022-08-19T07:51:29;26.50;52.30
24744;DHT22;12844;52.110;5.548;2022-08-19T07:53:55;26.50;52.30
24744;DHT22;12844;52.110;5.548;2022-08-19T07:56:21;26.50;52.40
24744;DHT22;12844;52.110;5.548;2022-08-19T07:58:49;26.50;52.40
24744;DHT22;12844;52.110;5.548;2022-08-19T08:01:18;26.50;52.40
24744;DHT22;12844;52.110;5.548;2022-08-19T08:03:44;26.50;52.40
24744;DHT22;12844;52.110;5.548;2022-08-19T08:06:29;26.50;52.40
24744;DHT22;12844;52.110;5.548;2022-08-19T08:09:14;26.50;52.40
24744;DHT22;12844;52.110;5.548;2022-08-19T08:12:09;26.50;52.40
24744;DHT22;12844;52.110;5.548;2022-08-19T08:14:42;26.50;52.30
24744;DHT22;12844;52.110;5.548;2022-08-19T08:17:10;26.50;52.30
24744;DHT22;12844;52.110;5.548;2022-08-19T08:19:36;26.50;52.40
24744;DHT22;12844;52.110;5.548;2022-08-19T08:22:03;26.50;52.40
24744;DHT22;12844;52.110;5.548;2022-08-19T08:24:31;26.50;52.40
24744;DHT22;12844;52.110;5.548;2022-08-19T08:26:58;26.50;52.40
24744;DHT22;12844;52.110;5.548;2022-08-19T08:29:28;26.60;52.50
24744;DHT22;12844;52.110;5.548;2022-08-19T08:31:55;26.60;52.50
24744;DHT22;12844;52.110;5.548;2022-08-19T08:34:20;26.60;52.50
24744;DHT22;12844;52.110;5.548;2022-08-19T08:36:46;26.60;52.50
24744;DHT22;12844;52.110;5.548;2022-08-19T08:39:15;26.60;52.50
24744;DHT22;12844;52.110;5.548;2022-08-19T08:44:23;26.60;52.60
24744;DHT22;12844;52.110;5.548;2022-08-19T08:46:57;26.60;52.50
24744;DHT22;12844;52.110;5.548;2022-08-19T08:49:44;26.60;52.50
24744;DHT22;12844;52.110;5.548;2022-08-19T08:52:15;26.70;52.60
24744;DHT22;12844;52.110;5.548;2022-08-19T08:54:45;26.60;52.60
24744;DHT22;12844;52.110;5.548;2022-08-19T08:57:29;26.60;52.60
24744;DHT22;12844;52.110;5.548;2022-08-19T08:59:57;26.60;52.60
24744;DHT22;12844;52.110;5.548;2022-08-19T09:02:25;26.60;52.70
24744;DHT22;12844;52.110;5.548;2022-08-19T09:04:51;26.60;52.70
24744;DHT22;12844;52.110;5.548;2022-08-19T09:07:47;26.70;53.40
24744;DHT22;12844;52.110;5.548;2022-08-19T09:10:22;26.70;52.60
24744;DHT22;12844;52.110;5.548;2022-08-19T09:15:40;26.80;52.70
24744;DHT22;12844;52.110;5.548;2022-08-19T09:18:08;26.80;52.70
24744;DHT22;12844;52.110;5.548;2022-08-19T09:20:33;26.80;52.70
24744;DHT22;12844;52.110;5.548;2022-08-19T09:22:59;26.90;52.70
24744;DHT22;12844;52.110;5.548;2022-08-19T09:25:25;26.90;52.70
24744;DHT22;12844;52.110;5.548;2022-08-19T09:27:52;26.90;52.70
24744;DHT22;12844;52.110;5.548;2022-08-19T09:30:27;26.90;52.70
24744;DHT22;12844;52.110;5.548;2022-08-19T09:32:53;26.90;52.70
24744;DHT22;12844;52.110;5.548;2022-08-19T09:35:24;26.90;52.70
24744;DHT22;12844;52.110;5.548;2022-08-19T09:37:50;27.00;52.80
24744;DHT22;12844;52.110;5.548;2022-08-19T09:40:16;27.00;52.70
24744;DHT22;12844;52.110;5.548;2022-08-19T09:42:43;27.00;52.70
24744;DHT22;12844;52.110;5.548;2022-08-19T09:45:13;27.00;52.70
24744;DHT22;12844;52.110;5.548;2022-08-19T09:47:39;27.10;52.80
24744;DHT22;12844;52.110;5.548;2022-08-19T09:50:06;27.10;52.70
24744;DHT22;12844;52.110;5.548;2022-08-19T09:52:33;27.10;52.60
24744;DHT22;12844;52.110;5.548;2022-08-19T09:55:00;27.10;52.60
24744;DHT22;12844;52.110;5.548;2022-08-19T09:57:25;27.10;52.60
24744;DHT22;12844;52.110;5.548;2022-08-19T09:59:51;27.20;52.60
24744;DHT22;12844;52.110;5.548;2022-08-19T10:02:16;27.20;52.50
24744;DHT22;12844;52.110;5.548;2022-08-19T10:04:43;27.20;52.40
24744;DHT22;12844;52.110;5.548;2022-08-19T10:07:29;27.20;52.40
24744;DHT22;12844;52.110;5.548;2022-08-19T10:09:55;27.20;52.50
24744;DHT22;12844;52.110;5.548;2022-08-19T10:12:20;27.20;52.50
24744;DHT22;12844;52.110;5.548;2022-08-19T10:14:47;27.10;52.40
24744;DHT22;12844;52.110;5.548;2022-08-19T10:17:13;27.10;52.30
24744;DHT22;12844;52.110;5.548;2022-08-19T10:19:39;27.10;52.30
24744;DHT22;12844;52.110;5.548;2022-08-19T10:22:07;27.10;52.30
24744;DHT22;12844;52.110;5.548;2022-08-19T10:24:33;27.10;52.40
24744;DHT22;12844;52.110;5.548;2022-08-19T10:27:00;27.10;52.50
24744;DHT22;12844;52.110;5.548;2022-08-19T10:29:29;27.10;52.50
24744;DHT22;12844;52.110;5.548;2022-08-19T10:31:54;27.10;52.50
24744;DHT22;12844;52.110;5.548;2022-08-19T10:34:21;27.10;52.60
24744;DHT22;12844;52.110;5.548;2022-08-19T10:36:46;27.10;52.70
24744;DHT22;12844;52.110;5.548;2022-08-19T10:39:12;27.10;52.80
24744;DHT22;12844;52.110;5.548;2022-08-19T10:41:39;27.10;52.80
24744;DHT22;12844;52.110;5.548;2022-08-19T10:44:10;27.20;52.60
24744;DHT22;12844;52.110;5.548;2022-08-19T10:46:39;27.20;52.50
24744;DHT22;12844;52.110;5.548;2022-08-19T10:49:09;27.20;52.70
24744;DHT22;12844;52.110;5.548;2022-08-19T10:51:35;27.20;52.80
24744;DHT22;12844;52.110;5.548;2022-08-19T10:54:19;27.20;52.80
24744;DHT22;12844;52.110;5.548;2022-08-19T10:56:45;27.20;52.80
24744;DHT22;12844;52.110;5.548;2022-08-19T10:59:24;27.30;52.80
24744;DHT22;12844;52.110;5.548;2022-08-19T11:01:53;27.20;52.80
24744;DHT22;12844;52.110;5.548;2022-08-19T11:04:20;27.30;52.80
24744;DHT22;12844;52.110;5.548;2022-08-19T11:06:47;27.30;52.80
24744;DHT22;12844;52.110;5.548;2022-08-19T11:09:23;27.30;52.70
24744;DHT22;12844;52.110;5.548;2022-08-19T11:11:55;27.40;52.70
24744;DHT22;12844;52.110;5.548;2022-08-19T11:14:22;27.40;52.80
24744;DHT22;12844;52.110;5.548;2022-08-19T11:16:49;27.40;52.80
24744;DHT22;12844;52.110;5.548;2022-08-19T11:19:15;27.40;52.80
24744;DHT22;12844;52.110;5.548;2022-08-19T11:21:45;27.40;52.80
24744;DHT22;12844;52.110;5.548;2022-08-19T11:24:15;27.40;52.80
24744;DHT22;12844;52.110;5.548;2022-08-19T11:26:43;27.40;52.80
24744;DHT22;12844;52.110;5.548;2022-08-19T11:29:10;27.40;52.80
24744;DHT22;12844;52.110;5.548;2022-08-19T11:31:38;27.40;52.80
24744;DHT22;12844;52.110;5.548;2022-08-19T11:34:06;27.40;52.70
24744;DHT22;12844;52.110;5.548;2022-08-19T11:36:33;27.40;52.70
24744;DHT22;12844;52.110;5.548;2022-08-19T11:39:00;27.40;52.70
24744;DHT22;12844;52.110;5.548;2022-08-19T11:41:26;27.40;52.80
24744;DHT22;12844;52.110;5.548;2022-08-19T11:43:53;27.40;52.70
24744;DHT22;12844;52.110;5.548;2022-08-19T11:46:22;27.40;52.70
24744;DHT22;12844;52.110;5.548;2022-08-19T11:48:48;27.40;52.70
24744;DHT22;12844;52.110;5.548;2022-08-19T11:51:18;27.40;52.90
24744;DHT22;12844;52.110;5.548;2022-08-19T11:53:45;27.40;52.70
24744;DHT22;12844;52.110;5.548;2022-08-19T11:56:11;27.50;52.70
24744;DHT22;12844;52.110;5.548;2022-08-19T11:58:38;27.50;52.70
24744;DHT22;12844;52.110;5.548;2022-08-19T12:01:12;27.50;52.70
24744;DHT22;12844;52.110;5.548;2022-08-19T12:03:38;27.50;52.70
24744;DHT22;12844;52.110;5.548;2022-08-19T12:06:09;27.50;52.70
24744;DHT22;12844;52.110;5.548;2022-08-19T12:08:35;27.50;52.70
24744;DHT22;12844;52.110;5.548;2022-08-19T12:11:01;27.50;52.80
24744;DHT22;12844;52.110;5.548;2022-08-19T12:13:29;27.50;52.70
24744;DHT22;12844;52.110;5.548;2022-08-19T12:15:56;27.50;52.80
24744;DHT22;12844;52.110;5.548;2022-08-19T12:18:22;27.50;52.50
24744;DHT22;12844;52.110;5.548;2022-08-19T12:20:50;27.50;52.40
24744;DHT22;12844;52.110;5.548;2022-08-19T12:23:16;27.50;52.50
24744;DHT22;12844;52.110;5.548;2022-08-19T12:25:47;27.40;52.50
24744;DHT22;12844;52.110;5.548;2022-08-19T12:28:20;27.40;53.10
24744;DHT22;12844;52.110;5.548;2022-08-19T12:30:47;27.40;52.50
24744;DHT22;12844;52.110;5.548;2022-08-19T12:33:13;27.40;52.50
24744;DHT22;12844;52.110;5.548;2022-08-19T12:35:43;27.40;52.50
24744;DHT22;12844;52.110;5.548;2022-08-19T12:38:10;27.40;52.60
24744;DHT22;12844;52.110;5.548;2022-08-19T12:40:36;27.30;52.70
24744;DHT22;12844;52.110;5.548;2022-08-19T12:43:01;27.30;52.80
24744;DHT22;12844;52.110;5.548;2022-08-19T12:45:27;27.30;52.90
24744;DHT22;12844;52.110;5.548;2022-08-19T12:47:54;27.30;52.80
24744;DHT22;12844;52.110;5.548;2022-08-19T12:50:19;27.30;52.80
24744;DHT22;12844;52.110;5.548;2022-08-19T12:52:47;27.30;52.90
24744;DHT22;12844;52.110;5.548;2022-08-19T12:55:13;27.20;52.90
24744;DHT22;12844;52.110;5.548;2022-08-19T12:57:38;27.20;53.00
24744;DHT22;12844;52.110;5.548;2022-08-19T13:00:11;27.20;53.10
24744;DHT22;12844;52.110;5.548;2022-08-19T13:02:39;27.20;53.10
24744;DHT22;12844;52.110;5.548;2022-08-19T13:05:08;27.20;53.10
24744;DHT22;12844;52.110;5.548;2022-08-19T13:07:34;27.20;53.10
24744;DHT22;12844;52.110;5.548;2022-08-19T13:10:00;27.20;53.20
24744;DHT22;12844;52.110;5.548;2022-08-19T13:12:25;27.10;53.20
24744;DHT22;12844;52.110;5.548;2022-08-19T13:14:55;27.10;53.20
24744;DHT22;12844;52.110;5.548;2022-08-19T13:17:21;27.10;53.20
24744;DHT22;12844;52.110;5.548;2022-08-19T13:19:46;27.10;53.30
24744;DHT22;12844;52.110;5.548;2022-08-19T13:22:12;27.10;53.30
24744;DHT22;12844;52.110;5.548;2022-08-19T13:24:38;27.10;53.30
24744;DHT22;12844;52.110;5.548;2022-08-19T13:27:04;27.10;53.30
24744;DHT22;12844;52.110;5.548;2022-08-19T13:29:30;27.10;53.30
24744;DHT22;12844;52.110;5.548;2022-08-19T13:32:14;27.10;53.30
24744;DHT22;12844;52.110;5.548;2022-08-19T13:34:58;27.10;53.30
24744;DHT22;12844;52.110;5.548;2022-08-19T13:37:24;27.10;53.40
24744;DHT22;12844;52.110;5.548;2022-08-19T13:40:24;27.10;53.30
24744;DHT22;12844;52.110;5.548;2022-08-19T13:42:53;27.10;53.40
24744;DHT22;12844;52.110;5.548;2022-08-19T13:45:22;27.10;53.40
24744;DHT22;12844;52.110;5.548;2022-08-19T13:47:50;27.10;53.30
24744;DHT22;12844;52.110;5.548;2022-08-19T13:50:19;27.10;53.30
24744;DHT22;12844;52.110;5.548;2022-08-19T13:52:45;27.10;53.30
24744;DHT22;12844;52.110;5.548;2022-08-19T13:55:11;27.10;53.40
24744;DHT22;12844;52.110;5.548;2022-08-19T13:57:37;27.10;53.40
24744;DHT22;12844;52.110;5.548;2022-08-19T14:00:15;27.00;53.40
24744;DHT22;12844;52.110;5.548;2022-08-19T14:02:45;27.10;53.40
24744;DHT22;12844;52.110;5.548;2022-08-19T14:05:15;27.00;53.40
24744;DHT22;12844;52.110;5.548;2022-08-19T14:07:42;27.00;53.40
24744;DHT22;12844;52.110;5.548;2022-08-19T14:10:11;27.00;53.40
24744;DHT22;12844;52.110;5.548;2022-08-19T14:12:37;27.00;53.40
24744;DHT22;12844;52.110;5.548;2022-08-19T14:15:05;27.00;53.40
24744;DHT22;12844;52.110;5.548;2022-08-19T14:17:31;27.00;53.50
24744;DHT22;12844;52.110;5.548;2022-08-19T14:20:01;27.00;53.50
24744;DHT22;12844;52.110;5.548;2022-08-19T14:22:29;27.00;53.50
24744;DHT22;12844;52.110;5.548;2022-08-19T14:24:56;27.00;53.50
24744;DHT22;12844;52.110;5.548;2022-08-19T14:27:22;27.00;53.50
24744;DHT22;12844;52.110;5.548;2022-08-19T14:29:50;27.10;53.60
24744;DHT22;12844;52.110;5.548;2022-08-19T14:32:16;27.10;53.60
24744;DHT22;12844;52.110;5.548;2022-08-19T14:34:41;27.10;53.70
24744;DHT22;12844;52.110;5.548;2022-08-19T14:37:07;27.10;53.70
24744;DHT22;12844;52.110;5.548;2022-08-19T14:39:34;27.10;53.70
24744;DHT22;12844;52.110;5.548;2022-08-19T14:42:00;27.10;53.70
24744;DHT22;12844;52.110;5.548;2022-08-19T14:44:26;27.10;53.70
24744;DHT22;12844;52.110;5.548;2022-08-19T14:46:52;27.20;53.70
24744;DHT22;12844;52.110;5.548;2022-08-19T14:49:18;27.10;53.60
24744;DHT22;12844;52.110;5.548;2022-08-19T14:51:44;27.20;53.80
24744;DHT22;12844;52.110;5.548;2022-08-19T14:54:12;27.20;53.80
24744;DHT22;12844;52.110;5.548;2022-08-19T14:56:40;27.20;53.80
24744;DHT22;12844;52.110;5.548;2022-08-19T14:59:06;27.20;53.80
24744;DHT22;12844;52.110;5.548;2022-08-19T15:01:31;27.30;53.90
24744;DHT22;12844;52.110;5.548;2022-08-19T15:03:57;27.30;54.00
24744;DHT22;12844;52.110;5.548;2022-08-19T15:06:23;27.30;54.00
24744;DHT22;12844;52.110;5.548;2022-08-19T15:08:49;27.30;54.00
24744;DHT22;12844;52.110;5.548;2022-08-19T15:11:18;27.30;54.00
24744;DHT22;12844;52.110;5.548;2022-08-19T15:13:46;27.30;53.90
24744;DHT22;12844;52.110;5.548;2022-08-19T15:16:12;27.30;53.80
24744;DHT22;12844;52.110;5.548;2022-08-19T15:18:40;27.30;53.70
24744;DHT22;12844;52.110;5.548;2022-08-19T15:21:11;27.30;52.70
24744;DHT22;12844;52.110;5.548;2022-08-19T15:23:38;27.30;52.40
24744;DHT22;12844;52.110;5.548;2022-08-19T15:26:04;27.30;52.60
24744;DHT22;12844;52.110;5.548;2022-08-19T15:28:31;27.30;52.90
24744;DHT22;12844;52.110;5.548;2022-08-19T15:30:58;27.30;53.10
24744;DHT22;12844;52.110;5.548;2022-08-19T15:33:24;27.30;53.80
24744;DHT22;12844;52.110;5.548;2022-08-19T15:35:50;27.30;54.40
24744;DHT22;12844;52.110;5.548;2022-08-19T15:38:16;27.30;54.80
24744;DHT22;12844;52.110;5.548;2022-08-19T15:40:46;27.30;55.10
24744;DHT22;12844;52.110;5.548;2022-08-19T15:43:14;27.30;55.20
24744;DHT22;12844;52.110;5.548;2022-08-19T15:45:40;27.30;55.30